Time;durP1;ratioP1;P1;durP2;ratioP2;P2;SDS_P1;SDS_P2;PMS_P1;PMS_P2;Temp;Humidity;BMP_temperature;BMP_pressure;BME280_temperature;BME280_humidity;BME280_pressure;Samples;Min_cycle;Max_cycle;Signal;HPM_P1;HPM_P2
2021/05/13 00:00:37;;;;;;;4.38;2.50;;;16.10;67.90;;;;;;5063123;28;20040;-69
2021/05/13 00:03:03;;;;;;;5.63;2.65;;;16.10;68.00;;;;;;5064175;28;20024;-69
2021/05/13 00:05:29;;;;;;;7.57;2.75;;;16.00;68.00;;;;;;5066702;28;20020;-69
2021/05/13 00:07:54;;;;;;;7.60;2.63;;;16.10;68.20;;;;;;5059545;28;20043;-69
2021/05/13 00:10:23;;;;;;;6.10;2.72;;;16.00;68.20;;;;;;5050793;28;20140;-68
2021/05/13 00:12:54;;;;;;;5.85;2.35;;;15.90;68.30;;;;;;5051932;28;20033;-69
2021/05/13 00:15:22;;;;;;;8.70;3.05;;;16.00;68.50;;;;;;5050886;28;20120;-69
2021/05/13 00:17:49;;;;;;;12.73;4.10;;;15.90;68.50;;;;;;5062987;28;20031;-69
2021/05/13 00:20:21;;;;;;;4.63;2.13;;;15.90;68.60;;;;;;5067805;28;20126;-69
2021/05/13 00:22:48;;;;;;;7.03;2.92;;;15.80;68.70;;;;;;5052875;28;20025;-69
2021/05/13 00:25:14;;;;;;;6.60;2.88;;;15.80;68.80;;;;;;5051699;28;20045;-69
2021/05/13 00:27:40;;;;;;;6.30;2.70;;;15.80;68.80;;;;;;5051864;28;20440;-68
2021/05/13 00:30:07;;;;;;;5.43;2.25;;;15.80;68.90;;;;;;5052561;28;20040;-69
2021/05/13 00:32:36;;;;;;;6.93;2.95;;;15.70;69.00;;;;;;5057295;28;20052;-69
2021/05/13 00:35:03;;;;;;;5.95;2.53;;;15.70;69.30;;;;;;5069336;28;20064;-69
2021/05/13 00:37:29;;;;;;;10.10;2.70;;;15.70;69.40;;;;;;5059648;28;20032;-69
2021/05/13 00:39:54;;;;;;;5.80;2.15;;;15.70;69.50;;;;;;5070207;28;20041;-69
2021/05/13 00:42:20;;;;;;;5.75;2.22;;;15.70;69.50;;;;;;5070910;28;20082;-69
2021/05/13 00:44:46;;;;;;;6.28;2.42;;;15.60;69.60;;;;;;5067203;28;20513;-69
2021/05/13 00:47:13;;;;;;;5.93;2.42;;;15.60;69.70;;;;;;5056913;28;20038;-69
2021/05/13 00:49:39;;;;;;;7.40;3.25;;;15.60;69.90;;;;;;5054078;28;20119;-69
2021/05/13 00:52:08;;;;;;;8.35;2.25;;;15.60;70.10;;;;;;5051277;28;20114;-69
2021/05/13 00:54:37;;;;;;;5.65;2.40;;;15.60;70.10;;;;;;5050072;28;20305;-68
2021/05/13 00:57:05;;;;;;;6.32;3.00;;;15.60;70.10;;;;;;5061932;28;20435;-69
2021/05/13 00:59:30;;;;;;;7.07;3.20;;;15.50;70.30;;;;;;5058934;28;20475;-69
2021/05/13 01:01:56;;;;;;;8.25;2.70;;;15.50;70.30;;;;;;5053813;28;20033;-68
2021/05/13 01:04:22;;;;;;;5.13;2.88;;;15.50;70.30;;;;;;5051213;28;20044;-69
2021/05/13 01:06:49;;;;;;;8.45;2.60;;;15.50;70.40;;;;;;5066252;28;20036;-69
2021/05/13 01:09:26;;;;;;;6.28;3.00;;;15.50;70.40;;;;;;5070677;28;20064;-69
2021/05/13 01:12:15;;;;;;;6.82;3.08;;;15.40;70.40;;;;;;5069127;28;20032;-69
2021/05/13 01:14:43;;;;;;;10.13;4.10;;;15.50;70.50;;;;;;5064509;28;20028;-69
2021/05/13 01:19:50;;;;;;;7.75;2.70;;;15.40;70.60;;;;;;5065788;28;20093;-69
2021/05/13 01:22:18;;;;;;;6.15;2.47;;;15.30;70.70;;;;;;5059439;28;20142;-69
2021/05/13 01:24:44;;;;;;;7.38;3.00;;;15.30;70.70;;;;;;5049967;28;20041;-69
2021/05/13 01:27:10;;;;;;;5.57;2.90;;;15.30;70.70;;;;;;5049320;28;20038;-69
2021/05/13 01:29:36;;;;;;;5.53;2.40;;;15.20;70.60;;;;;;5056910;28;20035;-69
2021/05/13 01:32:02;;;;;;;5.80;2.58;;;15.30;70.80;;;;;;5060385;28;20084;-69
2021/05/13 01:34:28;;;;;;;8.23;3.63;;;15.20;70.80;;;;;;5048443;28;20067;-70
2021/05/13 01:36:53;;;;;;;5.45;2.90;;;15.20;71.00;;;;;;5068287;28;20028;-71
2021/05/13 01:39:19;;;;;;;4.60;2.25;;;15.20;71.10;;;;;;5067835;28;20149;-69
2021/05/13 01:41:45;;;;;;;6.65;2.67;;;15.10;71.10;;;;;;5066500;28;20024;-69
2021/05/13 01:44:12;;;;;;;9.00;2.80;;;15.10;71.20;;;;;;5061765;28;20402;-69
2021/05/13 01:46:38;;;;;;;6.80;3.33;;;15.10;71.30;;;;;;5067260;28;20154;-69
2021/05/13 01:49:05;;;;;;;6.47;2.85;;;15.10;71.40;;;;;;5055663;28;20127;-69
2021/05/13 01:51:31;;;;;;;7.03;3.35;;;15.10;71.70;;;;;;5050118;28;20132;-69
2021/05/13 01:53:57;;;;;;;8.00;2.78;;;15.10;72.10;;;;;;5066762;28;20116;-69
2021/05/13 01:56:23;;;;;;;7.35;2.75;;;15.00;72.00;;;;;;5060315;28;20028;-69
2021/05/13 01:58:49;;;;;;;5.80;2.72;;;15.00;72.00;;;;;;5049205;28;20068;-69
2021/05/13 02:01:15;;;;;;;7.38;2.80;;;15.00;72.10;;;;;;5063596;28;20359;-69
2021/05/13 02:03:42;;;;;;;8.52;3.25;;;15.00;72.10;;;;;;5052712;28;20451;-69
2021/05/13 02:06:09;;;;;;;6.70;3.25;;;15.00;72.00;;;;;;5061456;28;20036;-69
2021/05/13 02:08:36;;;;;;;5.68;3.15;;;15.00;72.10;;;;;;5064913;28;20376;-69
2021/05/13 02:11:01;;;;;;;7.47;3.22;;;15.00;72.10;;;;;;5049829;28;20025;-69
2021/05/13 02:13:27;;;;;;;8.45;3.38;;;15.00;72.20;;;;;;5064751;28;20032;-69
2021/05/13 02:15:53;;;;;;;8.48;3.65;;;15.00;72.30;;;;;;5067948;28;20081;-69
2021/05/13 02:18:21;;;;;;;7.68;2.88;;;14.90;72.20;;;;;;5052839;28;20429;-69
2021/05/13 02:20:48;;;;;;;6.07;2.95;;;14.90;72.10;;;;;;5058728;28;20100;-69
2021/05/13 02:23:14;;;;;;;8.00;3.22;;;14.90;72.10;;;;;;5049639;28;20057;-69
2021/05/13 02:25:42;;;;;;;6.72;3.03;;;14.90;72.00;;;;;;5052874;28;20086;-70
2021/05/13 02:28:08;;;;;;;8.38;3.50;;;14.80;71.90;;;;;;5061866;28;20033;-69
2021/05/13 02:30:34;;;;;;;7.25;3.30;;;14.80;72.00;;;;;;5060931;28;20029;-69
2021/05/13 02:32:59;;;;;;;7.28;3.20;;;14.80;72.10;;;;;;5069180;28;20082;-69
2021/05/13 02:35:25;;;;;;;10.43;3.85;;;14.80;72.20;;;;;;5065079;28;20090;-69
2021/05/13 02:37:51;;;;;;;9.02;3.63;;;14.80;72.20;;;;;;5058715;28;20041;-69
2021/05/13 02:40:17;;;;;;;13.70;4.97;;;14.70;72.10;;;;;;5049718;28;20053;-69
2021/05/13 02:42:44;;;;;;;9.00;3.35;;;14.70;72.20;;;;;;5060653;28;20029;-69
2021/05/13 02:45:11;;;;;;;7.15;3.83;;;14.70;72.20;;;;;;5053126;28;20351;-69
2021/05/13 02:47:37;;;;;;;7.93;3.63;;;14.70;72.30;;;;;;5050688;28;20025;-69
2021/05/13 02:50:05;;;;;;;6.68;3.08;;;14.70;72.40;;;;;;5064148;28;20048;-69
2021/05/13 02:52:30;;;;;;;7.97;2.97;;;14.70;72.50;;;;;;5069709;28;20052;-69
2021/05/13 02:54:56;;;;;;;9.00;3.83;;;14.70;72.70;;;;;;5068713;28;20466;-69
2021/05/13 02:57:22;;;;;;;6.28;3.20;;;14.60;72.70;;;;;;5057790;28;20479;-69
2021/05/13 02:59:51;;;;;;;7.13;3.85;;;14.60;72.80;;;;;;5062248;28;20032;-69
2021/05/13 03:02:17;;;;;;;7.43;3.83;;;14.60;72.90;;;;;;5050534;28;20074;-69
2021/05/13 03:04:43;;;;;;;7.65;4.00;;;14.60;73.10;;;;;;5058158;28;20120;-69
2021/05/13 03:07:10;;;;;;;7.82;3.88;;;14.60;73.10;;;;;;5060775;28;20079;-69
2021/05/13 03:09:39;;;;;;;8.02;4.15;;;14.60;73.10;;;;;;5066856;28;20166;-70
2021/05/13 03:12:06;;;;;;;11.77;4.45;;;14.60;73.20;;;;;;5060479;28;20119;-69
2021/05/13 03:14:32;;;;;;;7.60;4.40;;;14.60;73.20;;;;;;5072441;28;20489;-69
2021/05/13 03:16:58;;;;;;;6.03;3.40;;;14.50;73.10;;;;;;5071488;28;20482;-69
2021/05/13 03:22:11;;;;;;;9.23;3.60;;;14.50;73.10;;;;;;5055369;28;20179;-69
2021/05/13 03:27:13;;;;;;;9.43;3.75;;;14.50;72.90;;;;;;5072716;28;20048;-69
2021/05/13 03:29:39;;;;;;;6.03;3.33;;;14.40;72.70;;;;;;5058773;28;20461;-69
2021/05/13 03:32:05;;;;;;;8.25;3.45;;;14.40;72.60;;;;;;5072304;28;20043;-69
2021/05/13 03:34:31;;;;;;;8.85;3.72;;;14.40;72.50;;;;;;5071212;28;20711;-69
2021/05/13 03:36:56;;;;;;;8.93;4.15;;;14.40;72.50;;;;;;5067801;28;20054;-69
2021/05/13 03:39:22;;;;;;;8.70;4.03;;;14.40;72.40;;;;;;5070630;28;20036;-69
2021/05/13 03:41:48;;;;;;;8.30;3.70;;;14.30;72.40;;;;;;5072906;28;20035;-70
2021/05/13 03:44:14;;;;;;;8.02;3.42;;;14.30;72.40;;;;;;5069685;28;20100;-69
2021/05/13 03:46:39;;;;;;;7.80;4.28;;;14.30;72.40;;;;;;5054195;28;20032;-69
2021/05/13 03:49:05;;;;;;;8.50;3.40;;;14.30;72.40;;;;;;5055765;28;20086;-69
2021/05/13 03:51:30;;;;;;;8.02;3.55;;;14.20;72.50;;;;;;5065623;28;20059;-69
2021/05/13 03:53:56;;;;;;;8.63;4.43;;;14.20;72.50;;;;;;5057582;28;20037;-69
2021/05/13 03:56:22;;;;;;;7.75;4.30;;;14.20;72.70;;;;;;5061858;28;20025;-69
2021/05/13 03:58:55;;;;;;;8.30;4.32;;;14.20;72.80;;;;;;5059354;28;20439;-69
2021/05/13 04:01:42;;;;;;;8.35;3.53;;;14.20;72.70;;;;;;5070345;28;20044;-69
2021/05/13 04:04:08;;;;;;;7.65;4.13;;;14.20;72.60;;;;;;5050252;28;20022;-69
2021/05/13 04:06:34;;;;;;;8.35;4.07;;;14.10;72.50;;;;;;5053283;28;20043;-69
2021/05/13 04:08:59;;;;;;;7.57;3.85;;;14.20;72.70;;;;;;5051399;28;20452;-69
2021/05/13 04:11:25;;;;;;;8.77;4.75;;;14.10;72.60;;;;;;5052349;28;20098;-69
2021/05/13 04:13:52;;;;;;;10.63;4.55;;;14.10;72.80;;;;;;5048925;28;20156;-69
2021/05/13 04:16:25;;;;;;;7.30;4.22;;;14.10;73.00;;;;;;5055470;28;20025;-69
2021/05/13 04:18:51;;;;;;;7.78;4.43;;;14.10;73.10;;;;;;5067701;28;20036;-69
2021/05/13 04:21:17;;;;;;;10.55;5.13;;;14.20;73.30;;;;;;5066699;28;20040;-69
2021/05/13 04:23:42;;;;;;;8.85;4.30;;;14.10;73.20;;;;;;5069716;28;20037;-69
2021/05/13 04:26:08;;;;;;;9.13;4.93;;;14.20;73.30;;;;;;5061982;28;20028;-69
2021/05/13 04:28:34;;;;;;;8.75;4.32;;;14.20;73.30;;;;;;5063487;28;20474;-69
2021/05/13 04:30:59;;;;;;;8.95;4.78;;;14.20;73.30;;;;;;5058853;28;20079;-69
2021/05/13 04:33:25;;;;;;;7.95;4.45;;;14.20;73.50;;;;;;5053511;28;20065;-69
2021/05/13 04:35:51;;;;;;;7.55;4.53;;;14.20;73.50;;;;;;5049920;28;20582;-69
2021/05/13 04:38:18;;;;;;;8.07;4.85;;;14.30;73.60;;;;;;5049752;28;20474;-69
2021/05/13 04:40:44;;;;;;;10.48;5.40;;;14.30;73.70;;;;;;5051444;28;20021;-69
2021/05/13 04:43:09;;;;;;;9.13;5.30;;;14.30;73.80;;;;;;5064914;28;20484;-69
2021/05/13 04:45:35;;;;;;;8.93;4.88;;;14.40;74.00;;;;;;5086735;28;20422;-69
2021/05/13 04:50:27;;;;;;;12.85;8.02;;;14.40;74.30;;;;;;5060811;28;20131;-69
2021/05/13 04:52:53;;;;;;;9.38;6.00;;;14.50;74.40;;;;;;5065429;28;20132;-69
2021/05/13 04:55:19;;;;;;;9.85;5.82;;;14.50;74.50;;;;;;5050830;28;20097;-69
2021/05/13 04:57:45;;;;;;;8.93;6.15;;;14.60;74.50;;;;;;5063253;28;20113;-69
2021/05/13 05:00:12;;;;;;;9.55;5.68;;;14.60;74.60;;;;;;5049224;28;20036;-69
2021/05/13 05:02:37;;;;;;;11.45;7.65;;;14.60;74.90;;;;;;5051392;28;20033;-69
2021/05/13 05:05:05;;;;;;;13.23;8.18;;;14.70;75.40;;;;;;5051898;28;20037;-69
2021/05/13 05:07:30;;;;;;;10.98;7.35;;;14.70;75.40;;;;;;5056131;28;20037;-69
2021/05/13 05:09:56;;;;;;;12.98;7.18;;;14.80;76.20;;;;;;5066959;28;20502;-69
2021/05/13 05:12:22;;;;;;;9.15;6.70;;;14.80;76.10;;;;;;5059542;28;20158;-69
2021/05/13 05:14:48;;;;;;;12.27;7.53;;;14.90;76.00;;;;;;5063667;28;20027;-69
2021/05/13 05:17:13;;;;;;;12.25;8.63;;;14.90;76.10;;;;;;5053235;28;20087;-70
2021/05/13 05:19:39;;;;;;;11.65;8.40;;;14.90;76.20;;;;;;5058155;28;20406;-70
2021/05/13 05:22:06;;;;;;;11.98;8.90;;;15.00;76.40;;;;;;5050800;28;20059;-70
2021/05/13 05:24:32;;;;;;;12.10;8.82;;;15.10;76.70;;;;;;5059551;28;20037;-69
2021/05/13 05:26:58;;;;;;;13.20;9.13;;;15.10;76.90;;;;;;5053252;28;20021;-69
2021/05/13 05:29:24;;;;;;;12.13;8.82;;;15.10;77.20;;;;;;5062474;28;20097;-68
2021/05/13 05:31:49;;;;;;;18.52;11.32;;;15.20;77.40;;;;;;5059371;28;20390;-69
2021/05/13 05:34:15;;;;;;;15.23;8.68;;;15.20;77.40;;;;;;5050950;28;20037;-70
2021/05/13 05:36:41;;;;;;;10.63;8.82;;;15.30;77.20;;;;;;5059519;28;20033;-69
2021/05/13 05:39:06;;;;;;;13.65;10.18;;;15.30;77.10;;;;;;5048110;28;20040;-69
2021/05/13 05:41:32;;;;;;;14.23;9.93;;;15.40;77.20;;;;;;5057081;28;20024;-69
2021/05/13 05:43:58;;;;;;;15.48;10.07;;;15.50;77.10;;;;;;5049708;28;20044;-70
2021/05/13 05:46:24;;;;;;;15.05;10.90;;;15.60;77.00;;;;;;5052284;28;20029;-69
2021/05/13 05:48:50;;;;;;;14.50;10.43;;;15.70;76.90;;;;;;5043428;28;20380;-69
2021/05/13 05:51:18;;;;;;;15.48;10.90;;;15.80;76.70;;;;;;5066263;28;20052;-69
2021/05/13 05:53:43;;;;;;;15.35;10.43;;;16.00;76.60;;;;;;5061088;28;20123;-71
2021/05/13 05:56:09;;;;;;;17.73;11.52;;;16.10;76.30;;;;;;5050950;28;20120;-71
2021/05/13 05:58:35;;;;;;;18.10;12.30;;;16.20;76.00;;;;;;5051545;28;20032;-71
2021/05/13 06:01:00;;;;;;;13.88;10.52;;;16.30;75.90;;;;;;5065764;28;20024;-70
2021/05/13 06:03:26;;;;;;;15.45;10.82;;;16.40;75.80;;;;;;5049562;28;20039;-71
2021/05/13 06:05:52;;;;;;;17.83;12.20;;;16.50;75.60;;;;;;5043815;28;20037;-70
2021/05/13 06:08:17;;;;;;;16.13;12.63;;;16.60;74.90;;;;;;5049932;28;20036;-69
2021/05/13 06:10:43;;;;;;;20.02;12.75;;;16.70;74.80;;;;;;5050409;28;20032;-70
2021/05/13 06:13:09;;;;;;;21.98;15.85;;;16.90;74.40;;;;;;5051812;28;20033;-69
2021/05/13 06:15:36;;;;;;;17.55;13.98;;;17.00;74.00;;;;;;5051899;28;20493;-69
2021/05/13 06:18:02;;;;;;;16.48;12.60;;;17.20;73.50;;;;;;5050643;28;20068;-69
2021/05/13 06:20:30;;;;;;;17.90;14.10;;;17.40;73.20;;;;;;5069311;28;20044;-69
2021/05/13 06:22:55;;;;;;;19.95;12.77;;;17.60;72.40;;;;;;5067942;28;20043;-69
2021/05/13 06:25:23;;;;;;;18.83;14.55;;;17.80;71.10;;;;;;5063464;28;20025;-70
2021/05/13 06:27:49;;;;;;;17.33;14.15;;;17.90;70.70;;;;;;5055999;28;20374;-70
2021/05/13 06:30:16;;;;;;;17.17;13.20;;;18.00;70.90;;;;;;5064193;28;20139;-70
2021/05/13 06:32:43;;;;;;;15.30;13.43;;;18.10;70.50;;;;;;5069621;28;20070;-69
2021/05/13 06:35:09;;;;;;;18.67;13.82;;;18.30;69.50;;;;;;5046075;28;20115;-70
2021/05/13 06:37:35;;;;;;;17.27;13.23;;;18.50;68.90;;;;;;5071011;28;20101;-70
2021/05/13 06:40:00;;;;;;;16.35;12.68;;;18.70;68.70;;;;;;5056674;28;20121;-70
2021/05/13 06:42:26;;;;;;;17.98;13.55;;;18.90;68.20;;;;;;5065783;28;20032;-70
2021/05/13 06:44:52;;;;;;;14.63;12.63;;;19.10;67.70;;;;;;5054129;28;20450;-70
2021/05/13 06:47:18;;;;;;;15.68;12.55;;;19.30;66.50;;;;;;5068033;28;20025;-70
2021/05/13 06:49:44;;;;;;;15.77;12.38;;;19.50;66.30;;;;;;5057562;28;20029;-70
2021/05/13 06:52:09;;;;;;;16.55;12.05;;;19.70;65.20;;;;;;5064589;28;20068;-71
2021/05/13 06:54:35;;;;;;;16.35;12.68;;;19.80;64.70;;;;;;5069538;28;20025;-71
2021/05/13 06:57:02;;;;;;;15.93;12.32;;;19.90;64.60;;;;;;5068724;28;20032;-68
2021/05/13 06:59:27;;;;;;;16.50;13.13;;;20.00;64.30;;;;;;5061159;28;20071;-68
2021/05/13 07:01:56;;;;;;;15.82;11.75;;;20.00;64.30;;;;;;5052686;28;20052;-68
2021/05/13 07:04:27;;;;;;;15.63;12.15;;;20.10;64.10;;;;;;5061695;28;20056;-71
2021/05/13 07:06:53;;;;;;;14.73;11.30;;;20.10;63.30;;;;;;5052097;28;20053;-70
2021/05/13 07:09:18;;;;;;;14.63;11.30;;;20.10;63.60;;;;;;5059265;28;20048;-70
2021/05/13 07:11:44;;;;;;;18.65;11.13;;;20.30;63.60;;;;;;5065883;28;20363;-70
2021/05/13 07:14:10;;;;;;;13.15;11.05;;;20.50;63.40;;;;;;5068505;28;20025;-70
2021/05/13 07:16:36;;;;;;;13.00;9.80;;;20.60;62.50;;;;;;5057277;28;20482;-69
2021/05/13 07:19:04;;;;;;;12.98;10.80;;;20.80;62.00;;;;;;5062351;28;20096;-69
2021/05/13 07:21:30;;;;;;;15.23;11.40;;;20.90;61.30;;;;;;5059610;28;20037;-70
2021/05/13 07:23:56;;;;;;;18.92;12.35;;;20.90;60.80;;;;;;5062315;28;20074;-69
2021/05/13 07:26:22;;;;;;;15.73;13.93;;;20.90;60.40;;;;;;5054167;28;20044;-70
2021/05/13 07:28:48;;;;;;;15.13;12.02;;;20.90;60.00;;;;;;5051070;28;20383;-70
2021/05/13 07:31:14;;;;;;;15.52;12.98;;;21.20;59.80;;;;;;5051739;28;20065;-70
2021/05/13 07:33:40;;;;;;;17.15;13.85;;;21.40;58.60;;;;;;5051582;28;20180;-70
2021/05/13 07:36:07;;;;;;;14.40;12.82;;;21.50;58.10;;;;;;5051646;28;20033;-70
2021/05/13 07:38:33;;;;;;;18.63;14.43;;;21.70;57.10;;;;;;5051024;28;20040;-69
2021/05/13 07:40:59;;;;;;;16.33;13.55;;;21.90;57.30;;;;;;5061415;28;20178;-70
2021/05/13 07:43:26;;;;;;;14.85;11.40;;;22.00;56.90;;;;;;5056651;28;20033;-70
2021/05/13 07:45:52;;;;;;;16.88;12.57;;;22.20;56.40;;;;;;5060956;28;20032;-70
2021/05/13 07:48:18;;;;;;;14.95;11.57;;;22.30;56.20;;;;;;5056090;28;20021;-70
2021/05/13 07:50:44;;;;;;;17.05;13.68;;;22.40;56.10;;;;;;5064734;28;20110;-70
2021/05/13 07:53:09;;;;;;;14.90;12.68;;;22.50;54.70;;;;;;5053511;28;20025;-70
2021/05/13 07:55:37;;;;;;;16.38;12.82;;;22.40;55.50;;;;;;5050289;28;20564;-69
2021/05/13 07:58:03;;;;;;;17.25;13.68;;;23.10;53.40;;;;;;5055644;28;20025;-69
2021/05/13 08:00:28;;;;;;;14.98;12.75;;;23.30;53.60;;;;;;5049868;28;20041;-70
2021/05/13 08:02:54;;;;;;;18.23;14.45;;;23.70;52.00;;;;;;5061114;28;20029;-70
2021/05/13 08:05:20;;;;;;;16.48;13.52;;;24.00;51.90;;;;;;5066148;28;20032;-70
2021/05/13 08:07:45;;;;;;;17.23;13.43;;;24.20;50.10;;;;;;5060001;28;20028;-70
2021/05/13 08:10:12;;;;;;;16.63;13.57;;;24.50;50.80;;;;;;5057529;28;20052;-70
2021/05/13 08:12:37;;;;;;;16.17;12.90;;;24.80;49.80;;;;;;5060138;28;20373;-70
2021/05/13 08:15:06;;;;;;;16.85;13.10;;;25.10;49.80;;;;;;5089140;28;20489;-70
2021/05/13 08:17:31;;;;;;;17.13;13.15;;;25.40;48.50;;;;;;5064140;28;20036;-70
2021/05/13 08:19:57;;;;;;;15.77;13.07;;;25.60;46.70;;;;;;5065688;28;20382;-70
2021/05/13 08:22:23;;;;;;;14.98;12.82;;;25.80;46.80;;;;;;5059601;28;20037;-70
2021/05/13 08:24:48;;;;;;;21.42;16.65;;;25.90;43.90;;;;;;5053495;28;20029;-70
2021/05/13 08:27:14;;;;;;;16.98;14.07;;;25.90;45.50;;;;;;5065538;28;20028;-70
2021/05/13 08:29:39;;;;;;;16.15;13.57;;;26.00;46.20;;;;;;5064012;28;20068;-70
2021/05/13 08:32:06;;;;;;;15.82;13.40;;;26.30;46.10;;;;;;5056805;28;20029;-70
2021/05/13 08:34:32;;;;;;;17.55;13.77;;;26.60;44.50;;;;;;5056537;28;20024;-70
2021/05/13 08:36:58;;;;;;;16.65;14.93;;;26.60;43.40;;;;;;5067838;28;20056;-70
2021/05/13 08:39:24;;;;;;;16.98;14.20;;;26.70;44.00;;;;;;5085903;28;20076;-70
2021/05/13 08:41:50;;;;;;;18.35;14.57;;;26.80;42.40;;;;;;5052385;28;20037;-68
2021/05/13 08:44:18;;;;;;;16.50;13.65;;;26.70;41.90;;;;;;5051102;28;20030;-70
2021/05/13 08:46:43;;;;;;;15.00;13.00;;;26.90;43.20;;;;;;5054035;28;20087;-70
2021/05/13 08:49:09;;;;;;;16.52;14.30;;;27.20;42.90;;;;;;5068942;28;20479;-70
2021/05/13 08:51:37;;;;;;;15.52;13.63;;;27.60;41.00;;;;;;5052651;28;20053;-70
2021/05/13 08:54:04;;;;;;;14.07;12.55;;;27.90;40.50;;;;;;5055695;28;20039;-72
2021/05/13 08:56:30;;;;;;;17.48;13.30;;;28.10;41.00;;;;;;5050486;28;20025;-70
2021/05/13 08:59:06;;;;;;;14.98;13.15;;;28.00;42.00;;;;;;5051217;28;20399;-70
2021/05/13 09:01:33;;;;;;;19.58;12.85;;;28.50;38.30;;;;;;5050009;28;20040;-71
2021/05/13 09:04:01;;;;;;;14.85;12.60;;;28.10;37.90;;;;;;5049508;28;20395;-71
2021/05/13 09:06:32;;;;;;;14.35;12.85;;;27.90;39.40;;;;;;5050950;28;20037;-70
2021/05/13 09:09:19;;;;;;;22.50;14.63;;;28.00;38.80;;;;;;5051180;28;20033;-71
2021/05/13 09:11:49;;;;;;;18.40;13.02;;;27.90;38.40;;;;;;5057749;28;20035;-71
2021/05/13 09:14:29;;;;;;;13.57;10.43;;;27.70;38.10;;;;;;5058852;28;20766;-72
2021/05/13 09:16:59;;;;;;;13.60;11.00;;;27.80;39.80;;;;;;5054107;28;20109;-71
2021/05/13 09:19:34;;;;;;;12.00;10.63;;;28.20;38.70;;;;;;5064362;28;20115;-72
2021/05/13 09:22:08;;;;;;;17.33;14.90;;;28.40;38.20;;;;;;5059699;28;20467;-73
2021/05/13 09:25:10;;;;;;;16.17;14.48;;;28.40;39.30;;;;;;5053974;28;20107;-72
2021/05/13 09:27:47;;;;;;;14.75;13.13;;;28.60;38.70;;;;;;5062520;28;20507;-71
2021/05/13 09:30:23;;;;;;;15.90;13.30;;;28.50;38.30;;;;;;5061111;28;20123;-70
2021/05/13 09:32:53;;;;;;;14.75;12.10;;;28.10;38.50;;;;;;5057724;28;20475;-70
2021/05/13 09:35:24;;;;;;;14.77;10.52;;;28.10;38.80;;;;;;5067463;28;20107;-71
2021/05/13 09:38:01;;;;;;;13.10;10.95;;;28.30;37.80;;;;;;5057003;28;20020;-70
2021/05/13 09:40:38;;;;;;;12.85;10.50;;;28.50;38.00;;;;;;5060832;28;20032;-71
2021/05/13 09:43:17;;;;;;;13.90;10.10;;;28.70;36.20;;;;;;5062074;28;20447;-72
2021/05/13 09:45:47;;;;;;;13.18;10.40;;;28.80;36.80;;;;;;5056303;28;20021;-71
2021/05/13 09:48:42;;;;;;;13.38;11.98;;;29.10;35.20;;;;;;5060185;28;20031;-72
2021/05/13 09:51:37;;;;;;;11.55;8.98;;;31.30;37.80;;;;;;5055508;28;20121;-71
2021/05/13 09:54:10;;;;;;;11.90;9.05;;;30.20;35.90;;;;;;5051607;28;20041;-71
2021/05/13 09:56:38;;;;;;;11.77;8.52;;;29.90;34.90;;;;;;5048941;28;20045;-70
2021/05/13 09:59:28;;;;;;;12.98;9.52;;;29.80;34.30;;;;;;5049869;28;20040;-71
2021/05/13 10:01:57;;;;;;;9.38;7.75;;;29.50;33.20;;;;;;5053627;28;20486;-71
2021/05/13 10:04:23;;;;;;;12.32;9.35;;;29.50;35.60;;;;;;5052101;28;20037;-71
2021/05/13 10:06:49;;;;;;;11.57;9.50;;;29.70;33.80;;;;;;5063826;28;20506;-72
2021/05/13 10:09:15;;;;;;;13.07;8.90;;;29.60;34.60;;;;;;5049262;28;20060;-71
2021/05/13 10:11:44;;;;;;;10.88;9.13;;;29.50;34.30;;;;;;5049600;28;20033;-72
2021/05/13 10:14:12;;;;;;;11.88;8.70;;;29.40;34.10;;;;;;5049145;28;20177;-71
2021/05/13 10:16:39;;;;;;;9.90;6.10;;;29.20;33.60;;;;;;5058566;28;20493;-70
2021/05/13 10:19:13;;;;;;;9.77;6.30;;;29.20;33.10;;;;;;5058665;28;20052;-71
2021/05/13 10:21:42;;;;;;;10.38;6.55;;;29.30;33.10;;;;;;5069981;28;20097;-71
2021/05/13 10:24:08;;;;;;;10.45;7.47;;;29.20;32.70;;;;;;5065082;28;20044;-71
2021/05/13 10:26:37;;;;;;;7.60;5.32;;;29.10;33.00;;;;;;5053694;28;20090;-71
2021/05/13 10:32:15;;;;;;;6.50;3.58;;;29.30;31.80;;;;;;5049750;28;20047;-71
2021/05/13 10:34:40;;;;;;;11.55;4.10;;;29.30;31.60;;;;;;5050136;28;20021;-72
2021/05/13 10:37:16;;;;;;;6.63;3.42;;;29.10;30.00;;;;;;5065177;28;20528;-71
2021/05/13 10:42:43;;;;;;;7.50;3.45;;;28.80;30.70;;;;;;5058155;28;20056;-71
2021/05/13 10:45:24;;;;;;;7.07;3.33;;;28.60;30.90;;;;;;5066084;28;20058;-71
2021/05/13 10:48:08;;;;;;;7.25;3.78;;;28.70;31.60;;;;;;5069105;28;20032;-71
2021/05/13 10:50:47;;;;;;;6.70;4.25;;;28.70;30.70;;;;;;5060183;28;20135;-71
2021/05/13 10:53:45;;;;;;;6.18;2.85;;;28.60;30.00;;;;;;5049498;28;20021;-71
2021/05/13 10:56:32;;;;;;;7.70;5.72;;;28.50;30.50;;;;;;5050071;28;20033;-70
2021/05/13 10:59:08;;;;;;;7.57;4.20;;;28.40;30.50;;;;;;5049029;28;20040;-71
2021/05/13 11:01:47;;;;;;;8.02;4.10;;;28.30;31.80;;;;;;5049659;28;20315;-71
2021/05/13 11:04:34;;;;;;;7.85;4.72;;;28.30;31.90;;;;;;5049657;28;20033;-70
2021/05/13 11:07:04;;;;;;;9.35;6.07;;;28.30;32.20;;;;;;5049110;28;20033;-71
2021/05/13 11:09:39;;;;;;;8.73;5.85;;;28.20;33.20;;;;;;5048193;28;20094;-70
2021/05/13 11:12:08;;;;;;;7.35;5.07;;;28.20;32.90;;;;;;5053834;28;20017;-71
2021/05/13 11:14:34;;;;;;;9.05;5.13;;;28.00;32.90;;;;;;5048234;28;20118;-71
2021/05/13 11:17:04;;;;;;;8.68;4.82;;;27.70;32.90;;;;;;5053581;28;20414;-71
2021/05/13 11:19:30;;;;;;;10.95;6.57;;;27.60;33.60;;;;;;5061239;28;20037;-71
2021/05/13 11:21:56;;;;;;;7.93;4.53;;;27.40;33.80;;;;;;5067680;28;20343;-71
2021/05/13 11:24:22;;;;;;;8.65;6.32;;;27.50;33.30;;;;;;5060958;28;20036;-71
2021/05/13 11:26:55;;;;;;;8.93;5.57;;;27.30;32.60;;;;;;5057644;28;20056;-71
2021/05/13 11:29:21;;;;;;;7.38;4.35;;;27.20;32.90;;;;;;5052281;28;20058;-71
2021/05/13 11:31:50;;;;;;;7.60;4.25;;;27.50;33.90;;;;;;5052886;28;20369;-71
2021/05/13 11:34:20;;;;;;;8.38;5.05;;;27.50;33.10;;;;;;5052018;28;20435;-71
2021/05/13 11:36:47;;;;;;;7.32;4.32;;;27.50;34.80;;;;;;5063006;28;20040;-71
2021/05/13 11:39:17;;;;;;;7.07;4.22;;;27.80;35.20;;;;;;5059039;28;20136;-71
2021/05/13 11:41:49;;;;;;;14.90;5.82;;;28.10;36.10;;;;;;5060678;28;20361;-71
2021/05/13 11:44:20;;;;;;;9.85;5.55;;;28.10;35.30;;;;;;5052180;28;20054;-71
2021/05/13 11:46:50;;;;;;;9.65;6.13;;;28.10;37.40;;;;;;5052395;28;20032;-72
2021/05/13 11:49:15;;;;;;;7.60;5.10;;;28.20;36.60;;;;;;5051550;28;20431;-71
2021/05/13 11:51:41;;;;;;;7.60;4.90;;;28.00;35.00;;;;;;5051515;28;20103;-70
2021/05/13 11:54:08;;;;;;;6.50;4.55;;;27.80;34.20;;;;;;5052281;28;20025;-71
2021/05/13 11:56:36;;;;;;;8.50;5.03;;;26.80;32.90;;;;;;5051098;28;20437;-70
2021/05/13 11:59:03;;;;;;;6.82;4.20;;;27.60;35.70;;;;;;5052536;28;20095;-70
2021/05/13 12:01:34;;;;;;;7.78;4.88;;;27.60;36.10;;;;;;5052192;28;20029;-70
2021/05/13 12:04:22;;;;;;;8.40;5.13;;;27.60;38.00;;;;;;5052452;28;20071;-70
2021/05/13 12:06:58;;;;;;;8.32;4.70;;;27.40;36.30;;;;;;5052186;28;20033;-70
2021/05/13 12:09:25;;;;;;;8.43;4.85;;;27.20;36.70;;;;;;5052894;28;20128;-70
2021/05/13 12:11:52;;;;;;;8.70;5.13;;;27.10;37.70;;;;;;5054482;28;20139;-70
2021/05/13 12:14:24;;;;;;;7.57;3.90;;;27.00;37.80;;;;;;5069815;28;20056;-70
2021/05/13 12:16:57;;;;;;;8.85;4.32;;;26.90;38.00;;;;;;5069748;28;20021;-71
2021/05/13 12:19:24;;;;;;;7.15;4.13;;;26.70;38.30;;;;;;5064642;28;20620;-71
2021/05/13 12:21:58;;;;;;;6.68;4.28;;;26.60;37.90;;;;;;5072182;28;20481;-71
2021/05/13 12:24:29;;;;;;;9.45;5.22;;;26.50;37.30;;;;;;5068727;28;20347;-71
2021/05/13 12:26:55;;;;;;;8.65;4.68;;;26.20;37.50;;;;;;5050507;28;20420;-71
2021/05/13 12:29:21;;;;;;;7.30;4.22;;;26.10;39.30;;;;;;5051228;28;20116;-71
2021/05/13 12:31:48;;;;;;;6.45;4.60;;;26.10;38.30;;;;;;5052253;28;20036;-71
2021/05/13 12:34:33;;;;;;;9.38;4.50;;;26.00;37.60;;;;;;5051791;28;20021;-71
2021/05/13 12:37:00;;;;;;;9.65;4.88;;;25.80;37.30;;;;;;5051445;28;20114;-71
2021/05/13 12:39:30;;;;;;;6.80;3.72;;;25.70;38.20;;;;;;5051590;28;20025;-71
2021/05/13 12:41:57;;;;;;;8.20;4.45;;;25.60;38.80;;;;;;5052235;28;20035;-71
2021/05/13 12:44:27;;;;;;;8.55;4.78;;;25.60;39.00;;;;;;5063714;28;20123;-71
2021/05/13 12:46:54;;;;;;;6.68;4.57;;;25.50;39.90;;;;;;5058379;28;20024;-70
2021/05/13 12:49:24;;;;;;;7.05;3.75;;;25.60;41.30;;;;;;5064150;28;20122;-71
2021/05/13 12:52:10;;;;;;;10.57;5.20;;;26.00;38.90;;;;;;5050891;28;20095;-70
2021/05/13 12:54:41;;;;;;;7.78;4.60;;;26.20;38.90;;;;;;5051570;28;20025;-71
2021/05/13 12:57:17;;;;;;;11.57;5.43;;;26.40;39.50;;;;;;5055466;28;20032;-70
2021/05/13 12:59:52;;;;;;;10.02;4.22;;;26.30;39.00;;;;;;5056394;28;20119;-71